Time,TemperatureF,DewpointF,PressureIn,WindDirection,WindDirectionDegrees,WindSpeedMPH,WindSpeedGustMPH,Humidity,HourlyPrecipIn,Conditions,Clouds,dailyrainin,SoftwareType,DateUTC
2013-02-13 00:02:00,71.0,-99.9,30.00,SSW,204,11.0,13.0,-999,-99.99,,,-99.99,,2013-02-13 05:02:00,
2013-02-13 00:12:00,71.0,-99.9,29.99,SSW,207,12.0,15.0,-999,-99.99,,,-99.99,,2013-02-13 05:12:00,
2013-02-13 00:22:00,71.0,-99.9,29.99,SSW,202,13.0,16.0,-999,-99.99,,,-99.99,,2013-02-13 05:22:00,
2013-02-13 00:32:00,71.0,-99.9,29.99,SSW,208,11.0,16.0,-999,-99.99,,,-99.99,,2013-02-13 05:32:00,
2013-02-13 00:42:00,71.0,-99.9,29.99,SSW,204,9.0,14.0,-999,-99.99,,,-99.99,,2013-02-13 05:42:00,
2013-02-13 00:52:00,71.0,-99.9,29.99,SSW,203,9.0,13.0,-999,-99.99,,,-99.99,,2013-02-13 05:52:00,
2013-02-13 01:02:00,71.0,-99.9,29.99,SW,218,8.0,11.0,-999,-99.99,,,-99.99,,2013-02-13 06:02:00,
2013-02-13 01:12:00,71.0,-99.9,29.99,SSW,210,8.0,10.0,-999,-99.99,,,-99.99,,2013-02-13 06:12:00,
2013-02-13 01:22:00,71.0,-99.9,29.99,SSW,213,7.0,10.0,-999,-99.99,,,-99.99,,2013-02-13 06:22:00,
2013-02-13 01:32:00,71.0,-99.9,29.98,SSW,198,9.0,12.0,-999,-99.99,,,-99.99,,2013-02-13 06:32:00,
2013-02-13 01:42:00,71.0,-99.9,29.98,SSW,202,10.0,13.0,-999,-99.99,,,-99.99,,2013-02-13 06:42:00,
2013-02-13 01:52:00,71.0,-99.9,29.98,SSW,207,11.0,14.0,-999,-99.99,,,-99.99,,2013-02-13 06:52:00,
2013-02-13 02:02:00,71.0,-99.9,29.98,SSW,206,11.0,15.0,-999,-99.99,,,-99.99,,2013-02-13 07:02:00,
2013-02-13 02:11:00,71.0,-99.9,29.98,SSW,207,10.0,13.0,-999,-99.99,,,-99.99,,2013-02-13 07:11:00,
2013-02-13 02:22:00,71.0,-99.9,29.98,SSW,208,10.0,14.0,-999,-99.99,,,-99.99,,2013-02-13 07:22:00,
2013-02-13 02:32:00,71.0,-99.9,29.98,SSW,208,10.0,13.0,-999,-99.99,,,-99.99,,2013-02-13 07:32:00,
2013-02-13 02:42:00,71.0,-99.9,29.97,SSW,206,12.0,14.0,-999,-99.99,,,-99.99,,2013-02-13 07:42:00,
2013-02-13 02:52:00,71.0,-99.9,29.97,SSW,205,13.0,17.0,-999,-99.99,,,-99.99,,2013-02-13 07:52:00,
2013-02-13 03:01:00,71.0,-99.9,29.97,SSW,199,11.0,14.0,-999,-99.99,,,-99.99,,2013-02-13 08:01:00,
2013-02-13 03:11:00,71.0,-99.9,29.97,SSW,200,11.0,15.0,-999,-99.99,,,-99.99,,2013-02-13 08:11:00,
2013-02-13 03:22:00,71.0,-99.9,29.97,SSW,205,10.0,13.0,-999,-99.99,,,-99.99,,2013-02-13 08:22:00,
2013-02-13 03:32:00,71.0,-99.9,29.96,SSW,194,11.0,13.0,-999,-99.99,,,-99.99,,2013-02-13 08:32:00,
2013-02-13 03:43:00,71.0,-99.9,29.96,SSW,202,9.0,14.0,-999,-99.99,,,-99.99,,2013-02-13 08:43:00,
2013-02-13 03:52:00,71.0,-99.9,29.96,SSW,196,12.0,15.0,-999,-99.99,,,-99.99,,2013-02-13 08:52:00,
2013-02-13 04:02:00,71.0,-99.9,29.96,SSW,195,12.0,14.0,-999,-99.99,,,-99.99,,2013-02-13 09:02:00,
2013-02-13 04:11:00,71.0,-99.9,29.95,SSW,195,11.0,15.0,-999,-99.99,,,-99.99,,2013-02-13 09:11:00,
2013-02-13 04:21:00,71.0,-99.9,29.96,SSW,199,12.0,14.0,-999,-99.99,,,-99.99,,2013-02-13 09:21:00,
2013-02-13 04:32:00,71.0,-99.9,29.96,SSW,204,10.0,15.0,-999,-99.99,,,-99.99,,2013-02-13 09:32:00,
2013-02-13 04:42:00,71.0,-99.9,29.95,SSW,198,13.0,16.0,-999,-99.99,,,-99.99,,2013-02-13 09:42:00,
2013-02-13 04:52:00,71.0,-99.9,29.95,SSW,202,11.0,16.0,-999,-99.99,,,-99.99,,2013-02-13 09:52:00,
2013-02-13 05:01:00,71.0,-99.9,29.96,SSW,203,9.0,14.0,-999,-99.99,,,-99.99,,2013-02-13 10:01:00,
2013-02-13 05:11:00,71.0,-99.9,29.95,SSW,202,12.0,15.0,-999,-99.99,,,-99.99,,2013-02-13 10:11:00,
2013-02-13 05:22:00,70.0,-99.9,29.95,SSW,200,13.0,15.0,-999,-99.99,,,-99.99,,2013-02-13 10:22:00,
2013-02-13 05:32:00,70.0,-99.9,29.95,SSW,196,10.0,13.0,-999,-99.99,,,-99.99,,2013-02-13 10:32:00,
2013-02-13 05:42:00,70.0,-99.9,29.95,SSW,199,9.0,11.0,-999,-99.99,,,-99.99,,2013-02-13 10:42:00,
2013-02-13 05:52:00,70.0,-99.9,29.95,SSW,192,12.0,15.0,-999,-99.99,,,-99.99,,2013-02-13 10:52:00,
2013-02-13 06:01:00,70.0,-99.9,29.95,South,189,11.0,14.0,-999,-99.99,,,-99.99,,2013-02-13 11:01:00,
2013-02-13 06:11:00,70.0,-99.9,29.95,SSW,194,11.0,14.0,-999,-99.99,,,-99.99,,2013-02-13 11:11:00,
2013-02-13 06:22:00,70.0,-99.9,29.95,SSW,193,11.0,15.0,-999,-99.99,,,-99.99,,2013-02-13 11:22:00,
2013-02-13 06:32:00,71.0,-99.9,29.95,SSW,198,11.0,13.0,-999,-99.99,,,-99.99,,2013-02-13 11:32:00,
2013-02-13 06:42:00,71.0,-99.9,29.96,SSW,196,10.0,15.0,-999,-99.99,,,-99.99,,2013-02-13 11:42:00,
2013-02-13 06:52:00,71.0,-99.9,29.96,SSW,199,11.0,14.0,-999,-99.99,,,-99.99,,2013-02-13 11:52:00,
2013-02-13 07:02:00,71.0,-99.9,29.96,SSW,203,10.0,15.0,-999,-99.99,,,-99.99,,2013-02-13 12:02:00,
2013-02-13 07:11:00,71.0,-99.9,29.96,SSW,207,11.0,15.0,-999,-99.99,,,-99.99,,2013-02-13 12:11:00,
2013-02-13 07:22:00,70.0,-99.9,29.96,SSW,210,12.0,17.0,-999,-99.99,,,-99.99,,2013-02-13 12:22:00,
2013-02-13 07:32:00,70.0,-99.9,29.97,SSW,208,11.0,15.0,-999,-99.99,,,-99.99,,2013-02-13 12:32:00,
2013-02-13 07:42:00,70.0,-99.9,29.97,SSW,201,11.0,14.0,-999,-99.99,,,-99.99,,2013-02-13 12:42:00,
2013-02-13 07:52:00,70.0,-99.9,29.97,SSW,197,11.0,14.0,-999,-99.99,,,-99.99,,2013-02-13 12:52:00,
2013-02-13 08:02:00,70.0,-99.9,29.97,SSW,193,12.0,15.0,-999,-99.99,,,-99.99,,2013-02-13 13:02:00,
2013-02-13 08:12:00,70.0,-99.9,29.97,SSW,202,12.0,14.0,-999,-99.99,,,-99.99,,2013-02-13 13:12:00,
2013-02-13 08:22:00,70.0,-99.9,29.98,SSW,213,9.0,14.0,-999,-99.99,,,-99.99,,2013-02-13 13:22:00,
2013-02-13 08:32:00,71.0,-99.9,29.98,SW,220,11.0,16.0,-999,-99.99,,,-99.99,,2013-02-13 13:32:00,
2013-02-13 08:42:00,71.0,-99.9,29.98,SW,219,15.0,19.0,-999,-99.99,,,-99.99,,2013-02-13 13:42:00,
2013-02-13 08:52:00,71.0,-99.9,29.98,SSW,210,11.0,15.0,-999,-99.99,,,-99.99,,2013-02-13 13:52:00,
2013-02-13 09:01:00,71.0,-99.9,29.98,SSW,213,10.0,18.0,-999,-99.99,,,-99.99,,2013-02-13 14:01:00,
2013-02-13 09:11:00,71.0,-99.9,29.99,SSW,206,13.0,19.0,-999,-99.99,,,-99.99,,2013-02-13 14:11:00,
2013-02-13 09:22:00,71.0,-99.9,29.99,SSW,206,14.0,18.0,-999,-99.99,,,-99.99,,2013-02-13 14:22:00,
2013-02-13 09:32:00,71.0,-99.9,29.99,SSW,205,15.0,19.0,-999,-99.99,,,-99.99,,2013-02-13 14:32:00,
2013-02-13 09:42:00,71.0,-99.9,29.99,SSW,205,15.0,19.0,-999,-99.99,,,-99.99,,2013-02-13 14:42:00,
2013-02-13 09:52:00,72.0,-99.9,29.99,SSW,193,14.0,18.0,-999,-99.99,,,-99.99,,2013-02-13 14:52:00,
2013-02-13 10:02:00,72.0,-99.9,30.00,SSW,208,14.0,18.0,-999,-99.99,,,-99.99,,2013-02-13 15:02:00,
2013-02-13 10:11:00,72.0,-99.9,29.99,SSW,192,14.0,18.0,-999,-99.99,,,-99.99,,2013-02-13 15:11:00,
2013-02-13 10:22:00,72.0,-99.9,30.00,SSW,198,16.0,21.0,-999,-99.99,,,-99.99,,2013-02-13 15:22:00,
2013-02-13 10:32:00,72.0,-99.9,30.00,SSW,201,15.0,21.0,-999,-99.99,,,-99.99,,2013-02-13 15:32:00,
2013-02-13 10:42:00,72.0,-99.9,30.00,SSW,198,17.0,23.0,-999,-99.99,,,-99.99,,2013-02-13 15:42:00,
2013-02-13 10:52:00,72.0,-99.9,29.99,SSW,195,16.0,20.0,-999,-99.99,,,-99.99,,2013-02-13 15:52:00,
2013-02-13 11:02:00,71.0,-99.9,29.99,SSW,196,15.0,21.0,-999,-99.99,,,-99.99,,2013-02-13 16:02:00,
2013-02-13 11:12:00,71.0,-99.9,29.99,SSW,193,15.0,21.0,-999,-99.99,,,-99.99,,2013-02-13 16:12:00,
2013-02-13 11:21:00,71.0,-99.9,29.98,SSW,193,16.0,21.0,-999,-99.99,,,-99.99,,2013-02-13 16:21:00,
2013-02-13 11:32:00,71.0,-99.9,29.98,South,189,14.0,17.0,-999,-99.99,,,-99.99,,2013-02-13 16:32:00,
2013-02-13 11:42:00,71.0,-99.9,29.98,SSW,195,15.0,18.0,-999,-99.99,,,-99.99,,2013-02-13 16:42:00,
2013-02-13 11:52:00,71.0,-99.9,29.98,SSW,197,17.0,21.0,-999,-99.99,,,-99.99,,2013-02-13 16:52:00,
2013-02-13 12:02:00,72.0,-99.9,29.98,SSW,199,15.0,20.0,-999,-99.99,,,-99.99,,2013-02-13 17:02:00,
2013-02-13 12:11:00,73.0,-99.9,29.97,SSW,209,15.0,19.0,-999,-99.99,,,-99.99,,2013-02-13 17:11:00,
2013-02-13 12:21:00,74.0,-99.9,29.97,SW,220,16.0,23.0,-999,-99.99,,,-99.99,,2013-02-13 17:21:00,
2013-02-13 12:32:00,74.0,-99.9,29.97,SSW,202,19.0,25.0,-999,-99.99,,,-99.99,,2013-02-13 17:32:00,
2013-02-13 12:42:00,74.0,-99.9,29.97,SSW,209,16.0,23.0,-999,-99.99,,,-99.99,,2013-02-13 17:42:00,
2013-02-13 12:52:00,74.0,-99.9,29.96,SSW,209,16.0,20.0,-999,-99.99,,,-99.99,,2013-02-13 17:52:00,
2013-02-13 13:02:00,74.0,-99.9,29.95,SSW,198,17.0,23.0,-999,-99.99,,,-99.99,,2013-02-13 18:02:00,
2013-02-13 13:11:00,74.0,-99.9,29.95,SSW,202,18.0,23.0,-999,-99.99,,,-99.99,,2013-02-13 18:11:00,
2013-02-13 13:23:00,74.0,-99.9,29.94,SSW,201,19.0,26.0,-999,-99.99,,,-99.99,,2013-02-13 18:23:00,
2013-02-13 13:32:00,74.0,-99.9,29.94,SSW,206,18.0,24.0,-999,-99.99,,,-99.99,,2013-02-13 18:32:00,
2013-02-13 13:42:00,74.0,-99.9,29.93,SSW,211,15.0,22.0,-999,-99.99,,,-99.99,,2013-02-13 18:42:00,
2013-02-13 13:52:00,75.0,-99.9,29.93,SSW,210,16.0,26.0,-999,-99.99,,,-99.99,,2013-02-13 18:52:00,
2013-02-13 14:02:00,74.0,-99.9,29.93,SW,216,20.0,26.0,-999,-99.99,,,-99.99,,2013-02-13 19:02:00,
2013-02-13 14:11:00,75.0,-99.9,29.93,SSW,212,18.0,26.0,-999,-99.99,,,-99.99,,2013-02-13 19:11:00,
2013-02-13 14:21:00,75.0,-99.9,29.93,SSW,213,16.0,25.0,-999,-99.99,,,-99.99,,2013-02-13 19:21:00,
2013-02-13 14:32:00,75.0,-99.9,29.92,SW,231,16.0,22.0,-999,-99.99,,,-99.99,,2013-02-13 19:32:00,
2013-02-13 14:42:00,75.0,-99.9,29.92,SW,219,14.0,20.0,-999,-99.99,,,-99.99,,2013-02-13 19:42:00,
2013-02-13 14:52:00,74.0,-99.9,29.92,SW,222,11.0,22.0,-999,-99.99,,,-99.99,,2013-02-13 19:52:00,
2013-02-13 15:02:00,74.0,-99.9,29.91,SW,221,17.0,24.0,-999,-99.99,,,-99.99,,2013-02-13 20:02:00,
2013-02-13 15:11:00,74.0,-99.9,29.91,SW,215,17.0,22.0,-999,-99.99,,,-99.99,,2013-02-13 20:11:00,
2013-02-13 15:22:00,74.0,-99.9,29.91,SW,222,16.0,22.0,-999,-99.99,,,-99.99,,2013-02-13 20:22:00,
2013-02-13 15:32:00,74.0,-99.9,29.91,SW,219,19.0,26.0,-999,-99.99,,,-99.99,,2013-02-13 20:32:00,
2013-02-13 15:42:00,74.0,-99.9,29.91,SW,215,15.0,21.0,-999,-99.99,,,-99.99,,2013-02-13 20:42:00,
2013-02-13 15:52:00,74.0,-99.9,29.91,SW,221,17.0,27.0,-999,-99.99,,,-99.99,,2013-02-13 20:52:00,
2013-02-13 16:02:00,74.0,-99.9,29.90,SSW,210,20.0,23.0,-999,-99.99,,,-99.99,,2013-02-13 21:02:00,
2013-02-13 16:11:00,74.0,-99.9,29.90,SSW,210,19.0,24.0,-999,-99.99,,,-99.99,,2013-02-13 21:11:00,
2013-02-13 16:22:00,74.0,-99.9,29.90,SSW,211,21.0,26.0,-999,-99.99,,,-99.99,,2013-02-13 21:22:00,
2013-02-13 16:32:00,74.0,-99.9,29.90,SW,220,19.0,25.0,-999,-99.99,,,-99.99,,2013-02-13 21:32:00,
2013-02-13 16:43:00,74.0,-99.9,29.90,SW,216,20.0,26.0,-999,-99.99,,,-99.99,,2013-02-13 21:43:00,
2013-02-13 16:52:00,74.0,-99.9,29.90,SSW,212,21.0,29.0,-999,-99.99,,,-99.99,,2013-02-13 21:52:00,
2013-02-13 17:02:00,74.0,-99.9,29.90,SW,219,13.0,24.0,-999,-99.99,,,-99.99,,2013-02-13 22:02:00,
2013-02-13 17:11:00,74.0,-99.9,29.90,SW,219,14.0,23.0,-999,-99.99,,,-99.99,,2013-02-13 22:11:00,
2013-02-13 17:21:00,74.0,-99.9,29.90,SW,214,14.0,20.0,-999,-99.99,,,-99.99,,2013-02-13 22:21:00,
2013-02-13 17:32:00,74.0,-99.9,29.90,SW,214,16.0,22.0,-999,-99.99,,,-99.99,,2013-02-13 22:32:00,
2013-02-13 17:42:00,74.0,-99.9,29.91,SW,217,15.0,19.0,-999,-99.99,,,-99.99,,2013-02-13 22:42:00,
2013-02-13 17:52:00,74.0,-99.9,29.91,SW,217,15.0,23.0,-999,-99.99,,,-99.99,,2013-02-13 22:52:00,
2013-02-13 18:02:00,73.0,-99.9,29.90,SW,226,15.0,21.0,-999,-99.99,,,-99.99,,2013-02-13 23:02:00,
2013-02-13 18:12:00,73.0,-99.9,29.91,SW,221,17.0,22.0,-999,-99.99,,,-99.99,,2013-02-13 23:12:00,
2013-02-13 18:22:00,73.0,-99.9,29.90,SW,214,14.0,19.0,-999,-99.99,,,-99.99,,2013-02-13 23:22:00,
2013-02-13 18:32:00,73.0,-99.9,29.90,SW,216,15.0,19.0,-999,-99.99,,,-99.99,,2013-02-13 23:32:00,
2013-02-13 18:42:00,73.0,-99.9,29.91,SW,216,15.0,22.0,-999,-99.99,,,-99.99,,2013-02-13 23:42:00,
2013-02-13 18:53:00,73.0,-99.9,29.91,SW,214,13.0,19.0,-999,-99.99,,,-99.99,,2013-02-13 23:53:00,
2013-02-13 19:02:00,73.0,-99.9,29.91,SW,224,12.0,20.0,-999,-99.99,,,-99.99,,2013-02-14 00:02:00,
2013-02-13 19:12:00,73.0,-99.9,29.92,SW,221,12.0,17.0,-999,-99.99,,,-99.99,,2013-02-14 00:12:00,
2013-02-13 19:22:00,73.0,-99.9,29.92,SW,222,11.0,18.0,-999,-99.99,,,-99.99,,2013-02-14 00:22:00,
2013-02-13 19:32:00,67.0,-99.9,29.96,NW,326,20.0,31.0,-999,-99.99,,,-99.99,,2013-02-14 00:32:00,
2013-02-13 19:43:00,65.0,-99.9,29.96,NNW,341,19.0,34.0,-999,-99.99,,,-99.99,,2013-02-14 00:43:00,
2013-02-13 19:52:00,64.0,-99.9,29.99,NW,313,15.0,21.0,-999,-99.99,,,-99.99,,2013-02-14 00:52:00,
2013-02-13 20:01:00,63.0,-99.9,29.98,NNW,348,10.0,17.0,-999,-99.99,,,-99.99,,2013-02-14 01:01:00,
2013-02-13 20:11:00,64.0,-99.9,29.99,NNW,340,9.0,14.0,-999,-99.99,,,-99.99,,2013-02-14 01:11:00,
2013-02-13 20:22:00,64.0,-99.9,29.98,North,355,12.0,18.0,-999,-99.99,,,-99.99,,2013-02-14 01:22:00,
2013-02-13 20:32:00,64.0,-99.9,29.98,NNW,347,8.0,17.0,-999,-99.99,,,-99.99,,2013-02-14 01:32:00,
2013-02-13 20:42:00,64.0,-99.9,29.99,NNW,346,10.0,15.0,-999,-99.99,,,-99.99,,2013-02-14 01:42:00,
2013-02-13 20:52:00,64.0,-99.9,29.99,NNW,344,9.0,16.0,-999,-99.99,,,-99.99,,2013-02-14 01:52:00,
2013-02-13 21:02:00,63.0,-99.9,29.99,North,351,9.0,15.0,-999,-99.99,,,-99.99,,2013-02-14 02:02:00,
2013-02-13 21:11:00,63.0,-99.9,29.99,North,356,10.0,13.0,-999,-99.99,,,-99.99,,2013-02-14 02:11:00,
2013-02-13 21:21:00,63.0,-99.9,30.00,North,351,5.0,10.0,-999,-99.99,,,-99.99,,2013-02-14 02:21:00,
2013-02-13 21:32:00,63.0,-99.9,30.00,North,9,7.0,12.0,-999,-99.99,,,-99.99,,2013-02-14 02:32:00,
2013-02-13 21:42:00,63.0,-99.9,30.00,North,9,7.0,12.0,-999,-99.99,,,-99.99,,2013-02-14 02:42:00,
2013-02-13 21:52:00,63.0,-99.9,30.00,North,9,7.0,12.0,-999,-99.99,,,-99.99,,2013-02-14 02:52:00,
2013-02-13 22:02:00,64.0,-99.9,30.00,NNW,343,3.0,5.0,-999,-99.99,,,-99.99,,2013-02-14 03:02:00,
2013-02-13 22:12:00,64.0,-99.9,30.00,North,3,4.0,5.0,-999,-99.99,,,-99.99,,2013-02-14 03:12:00,
2013-02-13 22:22:00,64.0,-99.9,30.01,North,4,3.0,5.0,-999,-99.99,,,-99.99,,2013-02-14 03:22:00,
2013-02-13 22:32:00,64.0,-99.9,30.01,North,356,2.0,4.0,-999,-99.99,,,-99.99,,2013-02-14 03:32:00,
2013-02-13 22:42:00,65.0,-99.9,30.01,North,350,2.0,3.0,-999,-99.99,,,-99.99,,2013-02-14 03:42:00,
2013-02-13 22:52:00,65.0,-99.9,30.02,West,274,4.0,5.0,-999,-99.99,,,-99.99,,2013-02-14 03:52:00,
2013-02-13 23:01:00,66.0,-99.9,30.02,NNW,335,4.0,7.0,-999,-99.99,,,-99.99,,2013-02-14 04:01:00,
2013-02-13 23:12:00,66.0,-99.9,30.02,North,356,4.0,9.0,-999,-99.99,,,-99.99,,2013-02-14 04:12:00,
2013-02-13 23:21:00,65.0,-99.9,30.02,North,351,6.0,11.0,-999,-99.99,,,-99.99,,2013-02-14 04:21:00,
2013-02-13 23:32:00,64.0,-99.9,30.04,NW,308,11.0,13.0,-999,-99.99,,,-99.99,,2013-02-14 04:32:00,
2013-02-13 23:42:00,64.0,-99.9,30.03,NW,325,9.0,13.0,-999,-99.99,,,-99.99,,2013-02-14 04:42:00,
2013-02-13 23:52:00,63.0,-99.9,30.03,North,2,5.0,9.0,-999,-99.99,,,-99.99,,2013-02-14 04:52:00,